sensor_id;sensor_type;location;lat;lon;timestamp;P1;durP1;ratioP1;P2;durP2;ratioP2
18455;SDS011;9357;49.900;8.208;2023-09-12T00:00:18;15.63;;;7.93;;
18455;SDS011;9357;49.900;8.208;2023-09-12T00:01:51;14.90;;;8.47;;
18455;SDS011;9357;49.900;8.208;2023-09-12T00:03:24;15.50;;;8.10;;
18455;SDS011;9357;49.900;8.208;2023-09-12T00:04:57;12.37;;;7.23;;
18455;SDS011;9357;49.900;8.208;2023-09-12T00:06:29;16.63;;;9.60;;
18455;SDS011;9357;49.900;8.208;2023-09-12T00:08:02;15.17;;;8.23;;
18455;SDS011;9357;49.900;8.208;2023-09-12T00:09:34;15.87;;;9.20;;
18455;SDS011;9357;49.900;8.208;2023-09-12T00:11:08;16.73;;;9.00;;
18455;SDS011;9357;49.900;8.208;2023-09-12T00:12:42;15.03;;;8.73;;
18455;SDS011;9357;49.900;8.208;2023-09-12T00:14:14;16.80;;;9.70;;
18455;SDS011;9357;49.900;8.208;2023-09-12T00:15:48;17.90;;;8.93;;
18455;SDS011;9357;49.900;8.208;2023-09-12T00:17:21;19.17;;;9.60;;
18455;SDS011;9357;49.900;8.208;2023-09-12T00:18:53;16.20;;;9.13;;
18455;SDS011;9357;49.900;8.208;2023-09-12T00:20:26;14.23;;;8.93;;
18455;SDS011;9357;49.900;8.208;2023-09-12T00:21:58;19.20;;;8.63;;
18455;SDS011;9357;49.900;8.208;2023-09-12T00:23:31;18.13;;;8.70;;
18455;SDS011;9357;49.900;8.208;2023-09-12T00:25:03;15.10;;;9.10;;
18455;SDS011;9357;49.900;8.208;2023-09-12T00:26:36;16.83;;;9.00;;
18455;SDS011;9357;49.900;8.208;2023-09-12T00:28:08;16.00;;;9.07;;
18455;SDS011;9357;49.900;8.208;2023-09-12T00:29:40;16.37;;;8.43;;
18455;SDS011;9357;49.900;8.208;2023-09-12T00:31:13;15.03;;;8.80;;
18455;SDS011;9357;49.900;8.208;2023-09-12T00:32:46;14.47;;;8.53;;
18455;SDS011;9357;49.900;8.208;2023-09-12T00:34:19;13.73;;;7.93;;
18455;SDS011;9357;49.900;8.208;2023-09-12T00:35:51;14.83;;;7.70;;
18455;SDS011;9357;49.900;8.208;2023-09-12T00:37:24;15.83;;;8.60;;
18455;SDS011;9357;49.900;8.208;2023-09-12T00:38:56;15.63;;;8.40;;
18455;SDS011;9357;49.900;8.208;2023-09-12T00:40:28;22.60;;;9.80;;
18455;SDS011;9357;49.900;8.208;2023-09-12T00:42:01;18.87;;;9.40;;
18455;SDS011;9357;49.900;8.208;2023-09-12T00:43:33;16.97;;;8.87;;
18455;SDS011;9357;49.900;8.208;2023-09-12T00:45:06;18.83;;;8.80;;
18455;SDS011;9357;49.900;8.208;2023-09-12T00:46:38;21.03;;;9.63;;
18455;SDS011;9357;49.900;8.208;2023-09-12T00:48:13;16.93;;;9.20;;
18455;SDS011;9357;49.900;8.208;2023-09-12T00:49:46;20.07;;;9.10;;
18455;SDS011;9357;49.900;8.208;2023-09-12T00:51:26;18.73;;;9.20;;
18455;SDS011;9357;49.900;8.208;2023-09-12T00:52:59;14.73;;;9.33;;
18455;SDS011;9357;49.900;8.208;2023-09-12T00:54:34;14.97;;;9.63;;
18455;SDS011;9357;49.900;8.208;2023-09-12T00:56:06;14.97;;;9.60;;
18455;SDS011;9357;49.900;8.208;2023-09-12T00:57:39;15.93;;;9.73;;
18455;SDS011;9357;49.900;8.208;2023-09-12T00:59:12;17.03;;;9.20;;
18455;SDS011;9357;49.900;8.208;2023-09-12T01:00:46;19.80;;;10.03;;
18455;SDS011;9357;49.900;8.208;2023-09-12T01:02:19;17.23;;;10.53;;
18455;SDS011;9357;49.900;8.208;2023-09-12T01:03:53;22.17;;;10.27;;
18455;SDS011;9357;49.900;8.208;2023-09-12T01:05:26;18.53;;;9.90;;
18455;SDS011;9357;49.900;8.208;2023-09-12T01:07:00;18.27;;;9.83;;
18455;SDS011;9357;49.900;8.208;2023-09-12T01:08:34;15.93;;;8.73;;
18455;SDS011;9357;49.900;8.208;2023-09-12T01:10:08;12.00;;;8.70;;
18455;SDS011;9357;49.900;8.208;2023-09-12T01:11:40;14.83;;;8.50;;
18455;SDS011;9357;49.900;8.208;2023-09-12T01:13:14;14.00;;;8.63;;
18455;SDS011;9357;49.900;8.208;2023-09-12T01:14:46;12.33;;;8.13;;
18455;SDS011;9357;49.900;8.208;2023-09-12T01:16:18;17.40;;;8.10;;
18455;SDS011;9357;49.900;8.208;2023-09-12T01:17:50;11.90;;;7.33;;
18455;SDS011;9357;49.900;8.208;2023-09-12T01:19:24;14.50;;;8.50;;
18455;SDS011;9357;49.900;8.208;2023-09-12T01:21:03;13.53;;;7.90;;
18455;SDS011;9357;49.900;8.208;2023-09-12T01:22:52;12.77;;;7.47;;
18455;SDS011;9357;49.900;8.208;2023-09-12T01:24:45;11.23;;;7.43;;
18455;SDS011;9357;49.900;8.208;2023-09-12T01:26:39;15.03;;;8.87;;
18455;SDS011;9357;49.900;8.208;2023-09-12T01:28:19;15.13;;;9.40;;
18455;SDS011;9357;49.900;8.208;2023-09-12T01:29:56;14.43;;;8.77;;
18455;SDS011;9357;49.900;8.208;2023-09-12T01:31:32;18.03;;;10.00;;
18455;SDS011;9357;49.900;8.208;2023-09-12T01:33:08;15.07;;;9.07;;
18455;SDS011;9357;49.900;8.208;2023-09-12T01:34:40;17.37;;;9.47;;
18455;SDS011;9357;49.900;8.208;2023-09-12T01:36:13;13.70;;;9.17;;
18455;SDS011;9357;49.900;8.208;2023-09-12T01:37:45;16.03;;;10.33;;
18455;SDS011;9357;49.900;8.208;2023-09-12T01:39:17;14.60;;;8.70;;
18455;SDS011;9357;49.900;8.208;2023-09-12T01:40:50;12.60;;;9.33;;
18455;SDS011;9357;49.900;8.208;2023-09-12T01:42:26;12.87;;;7.87;;
18455;SDS011;9357;49.900;8.208;2023-09-12T01:44:03;14.00;;;8.40;;
18455;SDS011;9357;49.900;8.208;2023-09-12T01:45:37;14.63;;;8.43;;
18455;SDS011;9357;49.900;8.208;2023-09-12T01:47:09;15.10;;;8.63;;
18455;SDS011;9357;49.900;8.208;2023-09-12T01:48:44;11.53;;;7.90;;
18455;SDS011;9357;49.900;8.208;2023-09-12T01:50:18;16.17;;;7.73;;
18455;SDS011;9357;49.900;8.208;2023-09-12T01:51:51;14.90;;;7.77;;
18455;SDS011;9357;49.900;8.208;2023-09-12T01:53:24;12.90;;;8.13;;
18455;SDS011;9357;49.900;8.208;2023-09-12T01:54:57;18.17;;;9.27;;
18455;SDS011;9357;49.900;8.208;2023-09-12T01:56:31;15.63;;;9.20;;
18455;SDS011;9357;49.900;8.208;2023-09-12T01:58:03;13.17;;;8.53;;
18455;SDS011;9357;49.900;8.208;2023-09-12T01:59:37;15.00;;;9.43;;
18455;SDS011;9357;49.900;8.208;2023-09-12T02:01:09;18.20;;;9.53;;
18455;SDS011;9357;49.900;8.208;2023-09-12T02:02:43;13.80;;;10.00;;
18455;SDS011;9357;49.900;8.208;2023-09-12T02:04:15;14.93;;;9.17;;
18455;SDS011;9357;49.900;8.208;2023-09-12T02:05:48;15.33;;;9.47;;
18455;SDS011;9357;49.900;8.208;2023-09-12T02:07:20;13.90;;;9.53;;
18455;SDS011;9357;49.900;8.208;2023-09-12T02:08:54;16.27;;;10.30;;
18455;SDS011;9357;49.900;8.208;2023-09-12T02:10:27;16.10;;;10.10;;
18455;SDS011;9357;49.900;8.208;2023-09-12T02:11:59;15.60;;;10.03;;
18455;SDS011;9357;49.900;8.208;2023-09-12T02:13:31;14.87;;;9.40;;
18455;SDS011;9357;49.900;8.208;2023-09-12T02:15:05;15.43;;;10.60;;
18455;SDS011;9357;49.900;8.208;2023-09-12T02:16:38;16.97;;;11.00;;
18455;SDS011;9357;49.900;8.208;2023-09-12T02:18:14;16.33;;;10.83;;
18455;SDS011;9357;49.900;8.208;2023-09-12T02:19:47;16.10;;;10.83;;
18455;SDS011;9357;49.900;8.208;2023-09-12T02:21:19;15.40;;;10.03;;
18455;SDS011;9357;49.900;8.208;2023-09-12T02:22:52;18.67;;;10.90;;
18455;SDS011;9357;49.900;8.208;2023-09-12T02:24:24;13.43;;;10.23;;
18455;SDS011;9357;49.900;8.208;2023-09-12T02:25:57;21.77;;;11.43;;
18455;SDS011;9357;49.900;8.208;2023-09-12T02:27:28;22.97;;;12.33;;
18455;SDS011;9357;49.900;8.208;2023-09-12T02:29:02;20.37;;;12.13;;
18455;SDS011;9357;49.900;8.208;2023-09-12T02:30:38;21.60;;;11.77;;
18455;SDS011;9357;49.900;8.208;2023-09-12T02:32:12;19.23;;;11.90;;
18455;SDS011;9357;49.900;8.208;2023-09-12T02:33:44;18.73;;;11.90;;
18455;SDS011;9357;49.900;8.208;2023-09-12T02:35:17;15.97;;;12.13;;
18455;SDS011;9357;49.900;8.208;2023-09-12T02:36:49;20.20;;;12.10;;
18455;SDS011;9357;49.900;8.208;2023-09-12T02:38:22;23.37;;;12.23;;
18455;SDS011;9357;49.900;8.208;2023-09-12T02:39:53;20.20;;;12.70;;
18455;SDS011;9357;49.900;8.208;2023-09-12T02:41:26;22.63;;;12.30;;
18455;SDS011;9357;49.900;8.208;2023-09-12T02:42:58;26.47;;;12.83;;
18455;SDS011;9357;49.900;8.208;2023-09-12T02:44:30;21.57;;;11.30;;
18455;SDS011;9357;49.900;8.208;2023-09-12T02:46:03;17.90;;;11.00;;
18455;SDS011;9357;49.900;8.208;2023-09-12T02:47:36;14.53;;;10.27;;
18455;SDS011;9357;49.900;8.208;2023-09-12T02:49:08;15.07;;;8.57;;
18455;SDS011;9357;49.900;8.208;2023-09-12T02:50:41;12.30;;;7.77;;
18455;SDS011;9357;49.900;8.208;2023-09-12T02:52:13;12.53;;;9.17;;
18455;SDS011;9357;49.900;8.208;2023-09-12T02:53:45;15.83;;;9.30;;
18455;SDS011;9357;49.900;8.208;2023-09-12T02:55:17;12.67;;;8.60;;
18455;SDS011;9357;49.900;8.208;2023-09-12T02:56:50;13.20;;;8.27;;
18455;SDS011;9357;49.900;8.208;2023-09-12T02:58:22;14.87;;;9.37;;
18455;SDS011;9357;49.900;8.208;2023-09-12T02:59:54;12.23;;;8.40;;
18455;SDS011;9357;49.900;8.208;2023-09-12T03:01:27;14.60;;;9.60;;
18455;SDS011;9357;49.900;8.208;2023-09-12T03:03:00;15.93;;;8.83;;
18455;SDS011;9357;49.900;8.208;2023-09-12T03:04:35;15.23;;;8.83;;
18455;SDS011;9357;49.900;8.208;2023-09-12T03:06:08;14.53;;;9.53;;
18455;SDS011;9357;49.900;8.208;2023-09-12T03:07:40;11.37;;;8.60;;
18455;SDS011;9357;49.900;8.208;2023-09-12T03:09:13;15.50;;;9.67;;
18455;SDS011;9357;49.900;8.208;2023-09-12T03:10:45;17.47;;;10.93;;
18455;SDS011;9357;49.900;8.208;2023-09-12T03:12:26;19.40;;;12.00;;
18455;SDS011;9357;49.900;8.208;2023-09-12T03:13:58;20.17;;;11.27;;
18455;SDS011;9357;49.900;8.208;2023-09-12T03:15:35;17.83;;;11.13;;
18455;SDS011;9357;49.900;8.208;2023-09-12T03:17:09;15.03;;;9.30;;
18455;SDS011;9357;49.900;8.208;2023-09-12T03:18:41;16.03;;;9.90;;
18455;SDS011;9357;49.900;8.208;2023-09-12T03:20:13;12.50;;;9.90;;
18455;SDS011;9357;49.900;8.208;2023-09-12T03:21:46;18.50;;;10.60;;
18455;SDS011;9357;49.900;8.208;2023-09-12T03:23:18;17.47;;;10.17;;
18455;SDS011;9357;49.900;8.208;2023-09-12T03:24:51;12.97;;;8.67;;
18455;SDS011;9357;49.900;8.208;2023-09-12T03:26:24;17.53;;;9.37;;
18455;SDS011;9357;49.900;8.208;2023-09-12T03:27:57;11.90;;;8.43;;
18455;SDS011;9357;49.900;8.208;2023-09-12T03:29:29;16.90;;;9.07;;
18455;SDS011;9357;49.900;8.208;2023-09-12T03:31:06;17.33;;;8.70;;
18455;SDS011;9357;49.900;8.208;2023-09-12T03:32:41;14.43;;;8.33;;
18455;SDS011;9357;49.900;8.208;2023-09-12T03:34:14;12.17;;;8.60;;
18455;SDS011;9357;49.900;8.208;2023-09-12T03:35:46;13.67;;;9.63;;
18455;SDS011;9357;49.900;8.208;2023-09-12T03:37:18;13.00;;;8.20;;
18455;SDS011;9357;49.900;8.208;2023-09-12T03:38:52;12.90;;;8.40;;
18455;SDS011;9357;49.900;8.208;2023-09-12T03:40:27;14.13;;;9.53;;
18455;SDS011;9357;49.900;8.208;2023-09-12T03:42:00;16.53;;;9.50;;
18455;SDS011;9357;49.900;8.208;2023-09-12T03:43:33;18.63;;;9.37;;
18455;SDS011;9357;49.900;8.208;2023-09-12T03:45:05;18.17;;;9.70;;
18455;SDS011;9357;49.900;8.208;2023-09-12T03:46:38;17.00;;;9.10;;
18455;SDS011;9357;49.900;8.208;2023-09-12T03:48:11;16.50;;;9.20;;
18455;SDS011;9357;49.900;8.208;2023-09-12T03:49:44;19.77;;;9.60;;
18455;SDS011;9357;49.900;8.208;2023-09-12T03:51:16;17.03;;;9.90;;
18455;SDS011;9357;49.900;8.208;2023-09-12T03:52:49;14.47;;;8.50;;
18455;SDS011;9357;49.900;8.208;2023-09-12T03:54:21;16.00;;;9.20;;
18455;SDS011;9357;49.900;8.208;2023-09-12T03:55:53;14.47;;;8.83;;
18455;SDS011;9357;49.900;8.208;2023-09-12T03:57:25;13.33;;;8.63;;
18455;SDS011;9357;49.900;8.208;2023-09-12T03:58:58;14.10;;;9.00;;
18455;SDS011;9357;49.900;8.208;2023-09-12T04:00:31;10.80;;;8.30;;
18455;SDS011;9357;49.900;8.208;2023-09-12T04:02:03;15.67;;;9.40;;
18455;SDS011;9357;49.900;8.208;2023-09-12T04:03:38;13.40;;;9.47;;
18455;SDS011;9357;49.900;8.208;2023-09-12T04:05:11;17.57;;;9.37;;
18455;SDS011;9357;49.900;8.208;2023-09-12T04:06:43;14.73;;;8.97;;
18455;SDS011;9357;49.900;8.208;2023-09-12T04:08:15;12.60;;;9.03;;
18455;SDS011;9357;49.900;8.208;2023-09-12T04:09:47;13.70;;;9.10;;
18455;SDS011;9357;49.900;8.208;2023-09-12T04:11:20;14.33;;;8.97;;
18455;SDS011;9357;49.900;8.208;2023-09-12T04:13:10;10.07;;;8.70;;
18455;SDS011;9357;49.900;8.208;2023-09-12T04:14:43;17.20;;;9.07;;
18455;SDS011;9357;49.900;8.208;2023-09-12T04:16:14;11.30;;;8.83;;
18455;SDS011;9357;49.900;8.208;2023-09-12T04:17:47;11.47;;;8.63;;
18455;SDS011;9357;49.900;8.208;2023-09-12T04:19:21;13.93;;;9.80;;
18455;SDS011;9357;49.900;8.208;2023-09-12T04:20:53;18.60;;;9.57;;
18455;SDS011;9357;49.900;8.208;2023-09-12T04:22:26;14.60;;;10.67;;
18455;SDS011;9357;49.900;8.208;2023-09-12T04:24:00;18.33;;;10.90;;
18455;SDS011;9357;49.900;8.208;2023-09-12T04:25:32;15.37;;;10.70;;
18455;SDS011;9357;49.900;8.208;2023-09-12T04:27:04;17.17;;;11.10;;
18455;SDS011;9357;49.900;8.208;2023-09-12T04:28:36;14.80;;;11.20;;
18455;SDS011;9357;49.900;8.208;2023-09-12T04:30:09;14.50;;;9.57;;
18455;SDS011;9357;49.900;8.208;2023-09-12T04:31:42;17.27;;;9.33;;
18455;SDS011;9357;49.900;8.208;2023-09-12T04:33:15;14.60;;;9.70;;
18455;SDS011;9357;49.900;8.208;2023-09-12T04:34:48;18.53;;;11.17;;
18455;SDS011;9357;49.900;8.208;2023-09-12T04:36:21;15.17;;;10.20;;
18455;SDS011;9357;49.900;8.208;2023-09-12T04:37:52;17.10;;;10.47;;
18455;SDS011;9357;49.900;8.208;2023-09-12T04:39:25;18.43;;;10.37;;
18455;SDS011;9357;49.900;8.208;2023-09-12T04:40:57;19.60;;;11.07;;
18455;SDS011;9357;49.900;8.208;2023-09-12T04:42:34;20.80;;;11.33;;
18455;SDS011;9357;49.900;8.208;2023-09-12T04:44:05;17.60;;;9.53;;
18455;SDS011;9357;49.900;8.208;2023-09-12T04:45:38;15.93;;;9.87;;
18455;SDS011;9357;49.900;8.208;2023-09-12T04:47:10;17.87;;;10.57;;
18455;SDS011;9357;49.900;8.208;2023-09-12T04:48:43;14.93;;;10.97;;
18455;SDS011;9357;49.900;8.208;2023-09-12T04:50:17;18.23;;;11.47;;
18455;SDS011;9357;49.900;8.208;2023-09-12T04:51:49;15.17;;;10.57;;
18455;SDS011;9357;49.900;8.208;2023-09-12T04:53:21;17.53;;;11.07;;
18455;SDS011;9357;49.900;8.208;2023-09-12T04:54:54;16.07;;;9.83;;
18455;SDS011;9357;49.900;8.208;2023-09-12T04:56:26;12.57;;;10.03;;
18455;SDS011;9357;49.900;8.208;2023-09-12T04:57:58;19.13;;;11.07;;
18455;SDS011;9357;49.900;8.208;2023-09-12T04:59:30;11.33;;;10.13;;
18455;SDS011;9357;49.900;8.208;2023-09-12T05:01:03;16.37;;;10.87;;
18455;SDS011;9357;49.900;8.208;2023-09-12T05:02:35;18.87;;;11.00;;
18455;SDS011;9357;49.900;8.208;2023-09-12T05:04:08;15.47;;;11.20;;
18455;SDS011;9357;49.900;8.208;2023-09-12T05:05:44;19.27;;;11.57;;
18455;SDS011;9357;49.900;8.208;2023-09-12T05:07:16;16.93;;;11.13;;
18455;SDS011;9357;49.900;8.208;2023-09-12T05:08:49;23.10;;;11.37;;
18455;SDS011;9357;49.900;8.208;2023-09-12T05:10:21;17.87;;;11.73;;
18455;SDS011;9357;49.900;8.208;2023-09-12T05:11:54;16.10;;;11.03;;
18455;SDS011;9357;49.900;8.208;2023-09-12T05:13:25;18.70;;;11.90;;
18455;SDS011;9357;49.900;8.208;2023-09-12T05:14:58;18.20;;;11.33;;
18455;SDS011;9357;49.900;8.208;2023-09-12T05:16:30;13.53;;;10.77;;
18455;SDS011;9357;49.900;8.208;2023-09-12T05:18:03;19.03;;;11.40;;
18455;SDS011;9357;49.900;8.208;2023-09-12T05:19:35;15.87;;;10.60;;
18455;SDS011;9357;49.900;8.208;2023-09-12T05:21:09;17.07;;;12.03;;
18455;SDS011;9357;49.900;8.208;2023-09-12T05:22:42;16.67;;;11.53;;
18455;SDS011;9357;49.900;8.208;2023-09-12T05:24:14;17.77;;;12.80;;
18455;SDS011;9357;49.900;8.208;2023-09-12T05:25:47;19.77;;;12.30;;
18455;SDS011;9357;49.900;8.208;2023-09-12T05:27:18;14.50;;;10.93;;
18455;SDS011;9357;49.900;8.208;2023-09-12T05:28:51;18.70;;;11.73;;
18455;SDS011;9357;49.900;8.208;2023-09-12T05:30:23;14.87;;;10.70;;
18455;SDS011;9357;49.900;8.208;2023-09-12T05:31:56;17.17;;;10.73;;
18455;SDS011;9357;49.900;8.208;2023-09-12T05:33:29;14.37;;;11.13;;
18455;SDS011;9357;49.900;8.208;2023-09-12T05:35:04;24.13;;;12.13;;
18455;SDS011;9357;49.900;8.208;2023-09-12T05:36:53;19.20;;;11.37;;
18455;SDS011;9357;49.900;8.208;2023-09-12T05:38:25;17.73;;;11.40;;
18455;SDS011;9357;49.900;8.208;2023-09-12T05:39:58;16.90;;;12.13;;
18455;SDS011;9357;49.900;8.208;2023-09-12T05:41:30;17.60;;;11.47;;
18455;SDS011;9357;49.900;8.208;2023-09-12T05:43:02;20.70;;;11.90;;
18455;SDS011;9357;49.900;8.208;2023-09-12T05:44:34;20.17;;;12.30;;
18455;SDS011;9357;49.900;8.208;2023-09-12T05:46:07;18.87;;;11.83;;
18455;SDS011;9357;49.900;8.208;2023-09-12T05:47:39;16.50;;;11.73;;
18455;SDS011;9357;49.900;8.208;2023-09-12T05:49:12;17.53;;;11.20;;
18455;SDS011;9357;49.900;8.208;2023-09-12T05:50:44;19.00;;;10.93;;
18455;SDS011;9357;49.900;8.208;2023-09-12T05:52:18;16.60;;;10.70;;
18455;SDS011;9357;49.900;8.208;2023-09-12T05:53:50;17.27;;;11.23;;
18455;SDS011;9357;49.900;8.208;2023-09-12T05:55:22;16.43;;;10.47;;
18455;SDS011;9357;49.900;8.208;2023-09-12T05:56:56;15.87;;;10.50;;
18455;SDS011;9357;49.900;8.208;2023-09-12T05:58:28;16.07;;;10.40;;
18455;SDS011;9357;49.900;8.208;2023-09-12T06:00:01;15.37;;;11.03;;
18455;SDS011;9357;49.900;8.208;2023-09-12T06:01:35;16.07;;;11.30;;
18455;SDS011;9357;49.900;8.208;2023-09-12T06:03:08;16.70;;;11.03;;
18455;SDS011;9357;49.900;8.208;2023-09-12T06:04:40;17.63;;;10.83;;
18455;SDS011;9357;49.900;8.208;2023-09-12T06:06:13;15.53;;;11.00;;
18455;SDS011;9357;49.900;8.208;2023-09-12T06:07:47;20.70;;;11.47;;
18455;SDS011;9357;49.900;8.208;2023-09-12T06:09:19;15.33;;;11.43;;
18455;SDS011;9357;49.900;8.208;2023-09-12T06:10:52;18.30;;;11.53;;
18455;SDS011;9357;49.900;8.208;2023-09-12T06:12:25;22.73;;;12.27;;
18455;SDS011;9357;49.900;8.208;2023-09-12T06:13:58;16.80;;;11.73;;
18455;SDS011;9357;49.900;8.208;2023-09-12T06:15:30;15.13;;;11.23;;
18455;SDS011;9357;49.900;8.208;2023-09-12T06:17:03;17.07;;;11.60;;
18455;SDS011;9357;49.900;8.208;2023-09-12T06:18:35;18.73;;;11.40;;
18455;SDS011;9357;49.900;8.208;2023-09-12T06:20:08;14.27;;;10.17;;
18455;SDS011;9357;49.900;8.208;2023-09-12T06:21:41;14.70;;;10.60;;
18455;SDS011;9357;49.900;8.208;2023-09-12T06:23:15;15.20;;;10.67;;
18455;SDS011;9357;49.900;8.208;2023-09-12T06:24:49;15.83;;;11.27;;
18455;SDS011;9357;49.900;8.208;2023-09-12T06:26:21;13.90;;;10.40;;
18455;SDS011;9357;49.900;8.208;2023-09-12T06:27:54;19.60;;;11.33;;
18455;SDS011;9357;49.900;8.208;2023-09-12T06:29:26;14.87;;;9.77;;
18455;SDS011;9357;49.900;8.208;2023-09-12T06:30:58;15.93;;;10.87;;
18455;SDS011;9357;49.900;8.208;2023-09-12T06:32:32;18.20;;;10.87;;
18455;SDS011;9357;49.900;8.208;2023-09-12T06:34:04;16.60;;;10.60;;
18455;SDS011;9357;49.900;8.208;2023-09-12T06:35:36;15.67;;;11.10;;
18455;SDS011;9357;49.900;8.208;2023-09-12T06:37:13;17.03;;;11.37;;
18455;SDS011;9357;49.900;8.208;2023-09-12T06:38:47;17.53;;;11.13;;
18455;SDS011;9357;49.900;8.208;2023-09-12T06:40:19;15.93;;;10.83;;
18455;SDS011;9357;49.900;8.208;2023-09-12T06:41:52;17.07;;;10.67;;
18455;SDS011;9357;49.900;8.208;2023-09-12T06:43:25;17.43;;;11.13;;
18455;SDS011;9357;49.900;8.208;2023-09-12T06:44:57;16.83;;;10.13;;
18455;SDS011;9357;49.900;8.208;2023-09-12T06:46:29;14.13;;;10.20;;
18455;SDS011;9357;49.900;8.208;2023-09-12T06:48:02;16.63;;;11.17;;
18455;SDS011;9357;49.900;8.208;2023-09-12T06:49:38;14.37;;;10.60;;
18455;SDS011;9357;49.900;8.208;2023-09-12T06:51:18;23.13;;;11.33;;
18455;SDS011;9357;49.900;8.208;2023-09-12T06:53:00;18.90;;;12.57;;
18455;SDS011;9357;49.900;8.208;2023-09-12T06:54:35;20.00;;;12.43;;
18455;SDS011;9357;49.900;8.208;2023-09-12T06:56:08;31.03;;;14.47;;
18455;SDS011;9357;49.900;8.208;2023-09-12T06:57:39;41.90;;;15.83;;
18455;SDS011;9357;49.900;8.208;2023-09-12T06:59:13;47.53;;;17.73;;
18455;SDS011;9357;49.900;8.208;2023-09-12T07:00:45;30.30;;;13.83;;
18455;SDS011;9357;49.900;8.208;2023-09-12T07:02:18;20.63;;;11.93;;
18455;SDS011;9357;49.900;8.208;2023-09-12T07:03:50;17.47;;;11.50;;
18455;SDS011;9357;49.900;8.208;2023-09-12T07:05:25;19.83;;;11.13;;
18455;SDS011;9357;49.900;8.208;2023-09-12T07:06:57;17.47;;;9.80;;
18455;SDS011;9357;49.900;8.208;2023-09-12T07:08:30;20.07;;;11.10;;
18455;SDS011;9357;49.900;8.208;2023-09-12T07:10:05;17.37;;;11.67;;
18455;SDS011;9357;49.900;8.208;2023-09-12T07:11:55;17.53;;;11.40;;
18455;SDS011;9357;49.900;8.208;2023-09-12T07:13:27;18.20;;;11.43;;
18455;SDS011;9357;49.900;8.208;2023-09-12T07:14:59;21.03;;;12.07;;
18455;SDS011;9357;49.900;8.208;2023-09-12T07:16:32;22.60;;;11.87;;
18455;SDS011;9357;49.900;8.208;2023-09-12T07:18:04;19.73;;;12.00;;
18455;SDS011;9357;49.900;8.208;2023-09-12T07:19:38;19.57;;;12.37;;
18455;SDS011;9357;49.900;8.208;2023-09-12T07:21:09;17.23;;;11.90;;
18455;SDS011;9357;49.900;8.208;2023-09-12T07:22:43;18.20;;;12.70;;
18455;SDS011;9357;49.900;8.208;2023-09-12T07:24:15;17.43;;;12.13;;
18455;SDS011;9357;49.900;8.208;2023-09-12T07:25:49;18.67;;;13.57;;
18455;SDS011;9357;49.900;8.208;2023-09-12T07:27:21;18.73;;;12.83;;
18455;SDS011;9357;49.900;8.208;2023-09-12T07:28:54;21.53;;;12.00;;
18455;SDS011;9357;49.900;8.208;2023-09-12T07:30:27;16.50;;;12.77;;
18455;SDS011;9357;49.900;8.208;2023-09-12T07:32:01;18.57;;;12.37;;
18455;SDS011;9357;49.900;8.208;2023-09-12T07:33:34;16.77;;;12.20;;
18455;SDS011;9357;49.900;8.208;2023-09-12T07:35:06;19.23;;;12.23;;
18455;SDS011;9357;49.900;8.208;2023-09-12T07:36:39;15.90;;;11.10;;
18455;SDS011;9357;49.900;8.208;2023-09-12T07:38:12;20.23;;;12.50;;
18455;SDS011;9357;49.900;8.208;2023-09-12T07:39:46;18.83;;;12.23;;
18455;SDS011;9357;49.900;8.208;2023-09-12T07:41:20;21.23;;;11.60;;
18455;SDS011;9357;49.900;8.208;2023-09-12T07:42:53;17.37;;;11.40;;
18455;SDS011;9357;49.900;8.208;2023-09-12T07:44:27;16.30;;;11.20;;
18455;SDS011;9357;49.900;8.208;2023-09-12T07:46:00;19.97;;;11.50;;
18455;SDS011;9357;49.900;8.208;2023-09-12T07:47:33;15.33;;;10.13;;
18455;SDS011;9357;49.900;8.208;2023-09-12T07:49:05;15.47;;;10.20;;
18455;SDS011;9357;49.900;8.208;2023-09-12T07:50:40;14.47;;;9.80;;
18455;SDS011;9357;49.900;8.208;2023-09-12T07:52:12;22.97;;;10.37;;
18455;SDS011;9357;49.900;8.208;2023-09-12T07:53:45;22.73;;;9.97;;
18455;SDS011;9357;49.900;8.208;2023-09-12T07:55:17;16.90;;;9.90;;
18455;SDS011;9357;49.900;8.208;2023-09-12T07:56:51;16.50;;;9.53;;
18455;SDS011;9357;49.900;8.208;2023-09-12T07:58:23;17.20;;;9.07;;
18455;SDS011;9357;49.900;8.208;2023-09-12T07:59:55;16.40;;;9.03;;
18455;SDS011;9357;49.900;8.208;2023-09-12T08:01:27;16.27;;;8.90;;
18455;SDS011;9357;49.900;8.208;2023-09-12T08:03:00;16.63;;;8.97;;
18455;SDS011;9357;49.900;8.208;2023-09-12T08:04:32;15.20;;;9.30;;
18455;SDS011;9357;49.900;8.208;2023-09-12T08:06:05;14.53;;;9.17;;
18455;SDS011;9357;49.900;8.208;2023-09-12T08:07:37;12.17;;;8.43;;
18455;SDS011;9357;49.900;8.208;2023-09-12T08:09:09;15.23;;;8.70;;
18455;SDS011;9357;49.900;8.208;2023-09-12T08:10:41;13.53;;;8.40;;
18455;SDS011;9357;49.900;8.208;2023-09-12T08:12:15;14.47;;;8.37;;
18455;SDS011;9357;49.900;8.208;2023-09-12T08:13:48;15.93;;;9.33;;
18455;SDS011;9357;49.900;8.208;2023-09-12T08:15:21;10.17;;;8.00;;
18455;SDS011;9357;49.900;8.208;2023-09-12T08:16:53;15.50;;;9.43;;
18455;SDS011;9357;49.900;8.208;2023-09-12T08:18:27;16.40;;;9.00;;
18455;SDS011;9357;49.900;8.208;2023-09-12T08:20:02;14.00;;;9.00;;
18455;SDS011;9357;49.900;8.208;2023-09-12T08:21:34;17.53;;;8.77;;
18455;SDS011;9357;49.900;8.208;2023-09-12T08:23:07;11.23;;;8.77;;
18455;SDS011;9357;49.900;8.208;2023-09-12T08:24:39;13.13;;;9.20;;
18455;SDS011;9357;49.900;8.208;2023-09-12T08:26:12;12.80;;;8.63;;
18455;SDS011;9357;49.900;8.208;2023-09-12T08:27:46;12.87;;;8.87;;
18455;SDS011;9357;49.900;8.208;2023-09-12T08:29:18;13.37;;;8.87;;
18455;SDS011;9357;49.900;8.208;2023-09-12T08:30:51;13.67;;;8.67;;
18455;SDS011;9357;49.900;8.208;2023-09-12T08:32:24;13.27;;;8.83;;
18455;SDS011;9357;49.900;8.208;2023-09-12T08:33:56;15.03;;;8.60;;
18455;SDS011;9357;49.900;8.208;2023-09-12T08:35:29;14.70;;;9.17;;
18455;SDS011;9357;49.900;8.208;2023-09-12T08:37:03;16.60;;;9.50;;
18455;SDS011;9357;49.900;8.208;2023-09-12T08:38:35;14.90;;;9.20;;
18455;SDS011;9357;49.900;8.208;2023-09-12T08:40:08;14.27;;;9.37;;
18455;SDS011;9357;49.900;8.208;2023-09-12T08:41:41;15.73;;;9.63;;
18455;SDS011;9357;49.900;8.208;2023-09-12T08:43:15;11.97;;;8.87;;
18455;SDS011;9357;49.900;8.208;2023-09-12T08:44:48;12.83;;;8.67;;
18455;SDS011;9357;49.900;8.208;2023-09-12T08:46:20;14.40;;;9.38;;
18455;SDS011;9357;49.900;8.208;2023-09-12T08:47:54;16.10;;;9.15;;
18455;SDS011;9357;49.900;8.208;2023-09-12T08:49:28;12.05;;;9.07;;
18455;SDS011;9357;49.900;8.208;2023-09-12T08:51:02;12.52;;;8.80;;
18455;SDS011;9357;49.900;8.208;2023-09-12T08:52:35;11.15;;;8.65;;
18455;SDS011;9357;49.900;8.208;2023-09-12T08:54:14;13.40;;;9.15;;
18455;SDS011;9357;49.900;8.208;2023-09-12T08:55:47;10.98;;;7.78;;
18455;SDS011;9357;49.900;8.208;2023-09-12T08:57:19;15.10;;;8.68;;
18455;SDS011;9357;49.900;8.208;2023-09-12T08:58:54;13.93;;;8.48;;
18455;SDS011;9357;49.900;8.208;2023-09-12T09:00:27;15.70;;;9.18;;
18455;SDS011;9357;49.900;8.208;2023-09-12T09:02:00;14.07;;;9.00;;
18455;SDS011;9357;49.900;8.208;2023-09-12T09:03:35;16.60;;;8.93;;
18455;SDS011;9357;49.900;8.208;2023-09-12T09:05:08;17.75;;;8.40;;
18455;SDS011;9357;49.900;8.208;2023-09-12T09:06:41;12.43;;;8.98;;
18455;SDS011;9357;49.900;8.208;2023-09-12T09:08:14;16.40;;;8.63;;
18455;SDS011;9357;49.900;8.208;2023-09-12T09:09:48;14.02;;;8.80;;
18455;SDS011;9357;49.900;8.208;2023-09-12T09:11:23;13.10;;;9.50;;
18455;SDS011;9357;49.900;8.208;2023-09-12T09:12:58;10.88;;;8.95;;
18455;SDS011;9357;49.900;8.208;2023-09-12T09:14:32;12.23;;;9.38;;
18455;SDS011;9357;49.900;8.208;2023-09-12T09:16:09;13.80;;;9.45;;
18455;SDS011;9357;49.900;8.208;2023-09-12T09:17:42;15.98;;;9.68;;